sensor_id;sensor_type;location;lat;lon;timestamp;P1;durP1;ratioP1;P2;durP2;ratioP2
77938;SDS011;67136;47.546;21.630;2023-04-10T00:02:25;17.50;;;8.40;;
77938;SDS011;67136;47.546;21.630;2023-04-10T00:05:28;19.42;;;9.32;;
77938;SDS011;67136;47.546;21.630;2023-04-10T00:08:33;19.67;;;8.73;;
77938;SDS011;67136;47.546;21.630;2023-04-10T00:11:36;18.43;;;8.93;;
77938;SDS011;67136;47.546;21.630;2023-04-10T00:14:39;19.05;;;8.82;;
77938;SDS011;67136;47.546;21.630;2023-04-10T00:17:42;21.20;;;9.05;;
77938;SDS011;67136;47.546;21.630;2023-04-10T00:20:44;19.58;;;9.30;;
77938;SDS011;67136;47.546;21.630;2023-04-10T00:23:47;17.47;;;8.10;;
77938;SDS011;67136;47.546;21.630;2023-04-10T00:26:51;19.50;;;9.00;;
77938;SDS011;67136;47.546;21.630;2023-04-10T00:29:54;18.27;;;8.35;;
77938;SDS011;67136;47.546;21.630;2023-04-10T00:32:57;17.80;;;8.77;;
77938;SDS011;67136;47.546;21.630;2023-04-10T00:36:00;19.12;;;9.57;;
77938;SDS011;67136;47.546;21.630;2023-04-10T00:39:02;16.67;;;7.93;;
77938;SDS011;67136;47.546;21.630;2023-04-10T00:42:05;16.57;;;8.03;;
77938;SDS011;67136;47.546;21.630;2023-04-10T00:45:10;19.25;;;8.68;;
77938;SDS011;67136;47.546;21.630;2023-04-10T00:48:13;21.10;;;9.32;;
77938;SDS011;67136;47.546;21.630;2023-04-10T00:51:17;17.02;;;8.55;;
77938;SDS011;67136;47.546;21.630;2023-04-10T00:54:22;20.80;;;9.30;;
77938;SDS011;67136;47.546;21.630;2023-04-10T00:57:26;19.27;;;8.33;;
77938;SDS011;67136;47.546;21.630;2023-04-10T01:00:29;21.55;;;9.90;;
77938;SDS011;67136;47.546;21.630;2023-04-10T01:03:32;18.65;;;9.38;;
77938;SDS011;67136;47.546;21.630;2023-04-10T01:13:59;19.67;;;9.33;;
77938;SDS011;67136;47.546;21.630;2023-04-10T01:17:27;18.98;;;10.20;;
77938;SDS011;67136;47.546;21.630;2023-04-10T01:20:37;19.15;;;8.30;;
77938;SDS011;67136;47.546;21.630;2023-04-10T01:31:03;21.83;;;9.83;;
77938;SDS011;67136;47.546;21.630;2023-04-10T01:34:14;18.30;;;9.38;;
77938;SDS011;67136;47.546;21.630;2023-04-10T01:37:26;19.98;;;10.05;;
77938;SDS011;67136;47.546;21.630;2023-04-10T01:40:31;20.15;;;9.18;;
77938;SDS011;67136;47.546;21.630;2023-04-10T01:43:34;18.93;;;9.50;;
77938;SDS011;67136;47.546;21.630;2023-04-10T01:46:39;20.83;;;9.90;;
77938;SDS011;67136;47.546;21.630;2023-04-10T01:49:46;17.30;;;9.23;;
77938;SDS011;67136;47.546;21.630;2023-04-10T01:52:50;19.77;;;9.68;;
77938;SDS011;67136;47.546;21.630;2023-04-10T01:55:54;20.23;;;9.18;;
77938;SDS011;67136;47.546;21.630;2023-04-10T01:58:56;17.67;;;8.90;;
77938;SDS011;67136;47.546;21.630;2023-04-10T02:02:00;21.50;;;9.33;;
77938;SDS011;67136;47.546;21.630;2023-04-10T02:05:03;21.27;;;10.13;;
77938;SDS011;67136;47.546;21.630;2023-04-10T02:11:46;19.50;;;10.25;;
77938;SDS011;67136;47.546;21.630;2023-04-10T02:14:58;18.63;;;8.97;;
77938;SDS011;67136;47.546;21.630;2023-04-10T02:18:05;18.53;;;8.97;;
77938;SDS011;67136;47.546;21.630;2023-04-10T02:21:11;20.37;;;9.85;;
77938;SDS011;67136;47.546;21.630;2023-04-10T02:24:15;17.62;;;9.20;;
77938;SDS011;67136;47.546;21.630;2023-04-10T02:27:29;18.55;;;8.68;;
77938;SDS011;67136;47.546;21.630;2023-04-10T02:30:36;17.43;;;8.70;;
77938;SDS011;67136;47.546;21.630;2023-04-10T02:33:40;19.13;;;9.97;;
77938;SDS011;67136;47.546;21.630;2023-04-10T02:36:43;18.92;;;8.68;;
77938;SDS011;67136;47.546;21.630;2023-04-10T02:39:46;18.02;;;8.98;;
77938;SDS011;67136;47.546;21.630;2023-04-10T02:42:48;16.92;;;8.93;;
77938;SDS011;67136;47.546;21.630;2023-04-10T02:45:51;22.17;;;9.23;;
77938;SDS011;67136;47.546;21.630;2023-04-10T02:48:54;20.07;;;9.13;;
77938;SDS011;67136;47.546;21.630;2023-04-10T02:51:57;17.70;;;8.85;;
77938;SDS011;67136;47.546;21.630;2023-04-10T02:54:59;16.52;;;8.82;;
77938;SDS011;67136;47.546;21.630;2023-04-10T02:58:04;18.67;;;9.00;;
77938;SDS011;67136;47.546;21.630;2023-04-10T03:01:06;17.37;;;8.70;;
77938;SDS011;67136;47.546;21.630;2023-04-10T03:04:10;16.50;;;8.60;;
77938;SDS011;67136;47.546;21.630;2023-04-10T03:07:13;18.80;;;8.77;;
77938;SDS011;67136;47.546;21.630;2023-04-10T03:10:16;21.15;;;8.52;;
77938;SDS011;67136;47.546;21.630;2023-04-10T03:13:18;19.67;;;9.00;;
77938;SDS011;67136;47.546;21.630;2023-04-10T03:16:21;17.63;;;8.83;;
77938;SDS011;67136;47.546;21.630;2023-04-10T03:19:23;16.20;;;8.47;;
77938;SDS011;67136;47.546;21.630;2023-04-10T03:22:30;18.30;;;8.80;;
77938;SDS011;67136;47.546;21.630;2023-04-10T03:25:34;17.62;;;8.95;;
77938;SDS011;67136;47.546;21.630;2023-04-10T03:28:38;18.45;;;9.43;;
77938;SDS011;67136;47.546;21.630;2023-04-10T03:31:43;17.60;;;9.13;;
77938;SDS011;67136;47.546;21.630;2023-04-10T03:34:46;22.33;;;9.30;;
77938;SDS011;67136;47.546;21.630;2023-04-10T03:37:48;18.52;;;9.30;;
77938;SDS011;67136;47.546;21.630;2023-04-10T03:40:51;19.65;;;10.23;;
77938;SDS011;67136;47.546;21.630;2023-04-10T03:43:55;20.58;;;10.05;;
77938;SDS011;67136;47.546;21.630;2023-04-10T03:47:07;18.73;;;9.60;;
77938;SDS011;67136;47.546;21.630;2023-04-10T03:50:09;21.93;;;10.73;;
77938;SDS011;67136;47.546;21.630;2023-04-10T03:53:13;22.27;;;11.10;;
77938;SDS011;67136;47.546;21.630;2023-04-10T03:56:16;22.05;;;10.70;;
77938;SDS011;67136;47.546;21.630;2023-04-10T03:59:20;22.65;;;10.68;;
77938;SDS011;67136;47.546;21.630;2023-04-10T04:02:29;22.73;;;11.50;;
77938;SDS011;67136;47.546;21.630;2023-04-10T04:05:33;21.03;;;11.10;;
77938;SDS011;67136;47.546;21.630;2023-04-10T04:08:35;23.95;;;11.32;;
77938;SDS011;67136;47.546;21.630;2023-04-10T04:11:40;23.77;;;11.00;;
77938;SDS011;67136;47.546;21.630;2023-04-10T04:14:45;28.70;;;12.63;;
77938;SDS011;67136;47.546;21.630;2023-04-10T04:17:49;21.37;;;10.97;;
77938;SDS011;67136;47.546;21.630;2023-04-10T04:20:56;21.43;;;10.53;;
77938;SDS011;67136;47.546;21.630;2023-04-10T04:24:04;25.15;;;11.57;;
77938;SDS011;67136;47.546;21.630;2023-04-10T04:27:08;21.05;;;11.02;;
77938;SDS011;67136;47.546;21.630;2023-04-10T04:30:11;25.08;;;11.45;;
77938;SDS011;67136;47.546;21.630;2023-04-10T04:33:16;21.80;;;10.57;;
77938;SDS011;67136;47.546;21.630;2023-04-10T04:36:21;24.43;;;11.67;;
77938;SDS011;67136;47.546;21.630;2023-04-10T04:39:26;27.55;;;13.00;;
77938;SDS011;67136;47.546;21.630;2023-04-10T04:42:29;25.52;;;12.48;;
77938;SDS011;67136;47.546;21.630;2023-04-10T04:45:34;25.37;;;11.85;;
77938;SDS011;67136;47.546;21.630;2023-04-10T04:48:39;22.83;;;12.00;;
77938;SDS011;67136;47.546;21.630;2023-04-10T04:51:41;24.43;;;11.90;;
77938;SDS011;67136;47.546;21.630;2023-04-10T04:54:44;22.33;;;11.52;;
77938;SDS011;67136;47.546;21.630;2023-04-10T04:57:47;22.48;;;11.52;;
77938;SDS011;67136;47.546;21.630;2023-04-10T05:00:51;24.58;;;12.68;;
77938;SDS011;67136;47.546;21.630;2023-04-10T05:03:54;22.43;;;12.20;;
77938;SDS011;67136;47.546;21.630;2023-04-10T05:06:57;24.33;;;11.67;;
77938;SDS011;67136;47.546;21.630;2023-04-10T05:10:02;26.50;;;11.93;;
77938;SDS011;67136;47.546;21.630;2023-04-10T05:13:08;21.10;;;11.23;;
77938;SDS011;67136;47.546;21.630;2023-04-10T05:16:11;22.62;;;11.93;;
77938;SDS011;67136;47.546;21.630;2023-04-10T05:19:15;22.60;;;11.90;;
77938;SDS011;67136;47.546;21.630;2023-04-10T05:22:22;23.45;;;12.43;;
77938;SDS011;67136;47.546;21.630;2023-04-10T05:25:25;25.02;;;12.32;;
77938;SDS011;67136;47.546;21.630;2023-04-10T05:28:30;24.30;;;11.95;;
77938;SDS011;67136;47.546;21.630;2023-04-10T05:31:33;24.00;;;11.82;;
77938;SDS011;67136;47.546;21.630;2023-04-10T05:34:36;23.20;;;11.77;;
77938;SDS011;67136;47.546;21.630;2023-04-10T05:37:40;25.50;;;12.68;;
77938;SDS011;67136;47.546;21.630;2023-04-10T05:40:46;27.87;;;12.63;;
77938;SDS011;67136;47.546;21.630;2023-04-10T05:43:51;24.90;;;12.60;;
77938;SDS011;67136;47.546;21.630;2023-04-10T05:46:55;22.17;;;12.32;;
77938;SDS011;67136;47.546;21.630;2023-04-10T05:49:58;24.83;;;12.77;;
77938;SDS011;67136;47.546;21.630;2023-04-10T05:53:00;25.17;;;12.30;;
77938;SDS011;67136;47.546;21.630;2023-04-10T05:56:07;24.87;;;12.77;;
77938;SDS011;67136;47.546;21.630;2023-04-10T05:59:10;24.90;;;12.73;;
77938;SDS011;67136;47.546;21.630;2023-04-10T06:02:14;21.50;;;12.02;;
77938;SDS011;67136;47.546;21.630;2023-04-10T06:05:19;23.17;;;12.70;;
77938;SDS011;67136;47.546;21.630;2023-04-10T06:08:22;21.75;;;11.15;;
77938;SDS011;67136;47.546;21.630;2023-04-10T06:11:24;21.48;;;11.43;;
77938;SDS011;67136;47.546;21.630;2023-04-10T06:14:27;23.50;;;11.73;;
77938;SDS011;67136;47.546;21.630;2023-04-10T06:17:30;20.23;;;11.65;;
77938;SDS011;67136;47.546;21.630;2023-04-10T06:20:33;18.47;;;11.23;;
77938;SDS011;67136;47.546;21.630;2023-04-10T06:23:35;20.73;;;11.40;;
77938;SDS011;67136;47.546;21.630;2023-04-10T06:26:38;19.50;;;11.25;;
77938;SDS011;67136;47.546;21.630;2023-04-10T06:29:41;19.08;;;10.52;;
77938;SDS011;67136;47.546;21.630;2023-04-10T06:32:43;21.42;;;11.55;;
77938;SDS011;67136;47.546;21.630;2023-04-10T06:35:47;20.13;;;10.83;;
77938;SDS011;67136;47.546;21.630;2023-04-10T06:38:50;21.02;;;11.07;;
77938;SDS011;67136;47.546;21.630;2023-04-10T06:41:52;19.23;;;10.93;;
77938;SDS011;67136;47.546;21.630;2023-04-10T06:44:57;25.27;;;11.68;;
77938;SDS011;67136;47.546;21.630;2023-04-10T06:48:00;18.37;;;10.50;;
77938;SDS011;67136;47.546;21.630;2023-04-10T06:51:02;21.57;;;11.63;;
77938;SDS011;67136;47.546;21.630;2023-04-10T06:54:05;20.23;;;10.98;;
77938;SDS011;67136;47.546;21.630;2023-04-10T06:57:08;23.60;;;11.18;;
77938;SDS011;67136;47.546;21.630;2023-04-10T07:00:10;21.15;;;11.65;;
77938;SDS011;67136;47.546;21.630;2023-04-10T07:03:13;21.52;;;11.55;;
77938;SDS011;67136;47.546;21.630;2023-04-10T07:06:16;19.40;;;11.37;;
77938;SDS011;67136;47.546;21.630;2023-04-10T07:09:19;18.87;;;10.93;;
77938;SDS011;67136;47.546;21.630;2023-04-10T07:12:22;20.23;;;11.40;;
77938;SDS011;67136;47.546;21.630;2023-04-10T07:15:25;16.48;;;9.95;;
77938;SDS011;67136;47.546;21.630;2023-04-10T07:18:27;17.75;;;11.25;;
77938;SDS011;67136;47.546;21.630;2023-04-10T07:21:30;15.63;;;9.83;;
77938;SDS011;67136;47.546;21.630;2023-04-10T07:24:34;17.55;;;10.18;;
77938;SDS011;67136;47.546;21.630;2023-04-10T07:27:36;15.13;;;9.82;;
77938;SDS011;67136;47.546;21.630;2023-04-10T07:30:39;18.48;;;10.15;;
77938;SDS011;67136;47.546;21.630;2023-04-10T07:33:41;17.50;;;9.93;;
77938;SDS011;67136;47.546;21.630;2023-04-10T07:36:44;16.40;;;9.57;;
77938;SDS011;67136;47.546;21.630;2023-04-10T07:39:48;17.23;;;9.85;;
77938;SDS011;67136;47.546;21.630;2023-04-10T07:42:52;16.70;;;10.20;;
77938;SDS011;67136;47.546;21.630;2023-04-10T07:45:55;16.48;;;9.73;;
77938;SDS011;67136;47.546;21.630;2023-04-10T07:48:58;16.12;;;9.93;;
77938;SDS011;67136;47.546;21.630;2023-04-10T07:52:03;17.00;;;10.20;;
77938;SDS011;67136;47.546;21.630;2023-04-10T07:55:07;17.95;;;10.38;;
77938;SDS011;67136;47.546;21.630;2023-04-10T07:58:10;16.90;;;9.63;;
77938;SDS011;67136;47.546;21.630;2023-04-10T08:01:13;16.48;;;10.18;;
77938;SDS011;67136;47.546;21.630;2023-04-10T08:04:17;17.23;;;10.52;;
77938;SDS011;67136;47.546;21.630;2023-04-10T08:07:19;15.10;;;9.20;;
77938;SDS011;67136;47.546;21.630;2023-04-10T08:10:23;16.98;;;9.82;;
77938;SDS011;67136;47.546;21.630;2023-04-10T08:13:26;19.23;;;9.43;;
77938;SDS011;67136;47.546;21.630;2023-04-10T08:16:30;20.37;;;8.93;;
77938;SDS011;67136;47.546;21.630;2023-04-10T08:19:33;14.75;;;9.52;;
77938;SDS011;67136;47.546;21.630;2023-04-10T08:22:37;18.07;;;9.87;;
77938;SDS011;67136;47.546;21.630;2023-04-10T08:25:43;16.60;;;10.02;;
77938;SDS011;67136;47.546;21.630;2023-04-10T08:28:46;15.27;;;9.65;;
77938;SDS011;67136;47.546;21.630;2023-04-10T08:31:51;16.42;;;10.20;;
77938;SDS011;67136;47.546;21.630;2023-04-10T08:34:55;19.87;;;10.50;;
77938;SDS011;67136;47.546;21.630;2023-04-10T08:37:58;16.83;;;10.37;;
77938;SDS011;67136;47.546;21.630;2023-04-10T08:41:17;17.80;;;10.32;;
77938;SDS011;67136;47.546;21.630;2023-04-10T08:44:20;16.30;;;10.57;;
77938;SDS011;67136;47.546;21.630;2023-04-10T08:47:24;16.58;;;10.05;;
77938;SDS011;67136;47.546;21.630;2023-04-10T08:50:30;16.85;;;10.07;;
77938;SDS011;67136;47.546;21.630;2023-04-10T08:53:38;17.50;;;10.40;;
77938;SDS011;67136;47.546;21.630;2023-04-10T08:56:46;20.70;;;10.90;;
77938;SDS011;67136;47.546;21.630;2023-04-10T08:59:54;19.55;;;11.32;;
77938;SDS011;67136;47.546;21.630;2023-04-10T09:02:57;18.92;;;11.48;;
77938;SDS011;67136;47.546;21.630;2023-04-10T09:06:02;19.15;;;11.35;;
77938;SDS011;67136;47.546;21.630;2023-04-10T09:09:05;18.53;;;10.97;;
77938;SDS011;67136;47.546;21.630;2023-04-10T09:12:08;18.27;;;10.73;;
77938;SDS011;67136;47.546;21.630;2023-04-10T09:15:11;21.25;;;12.10;;
77938;SDS011;67136;47.546;21.630;2023-04-10T09:18:15;17.35;;;10.68;;
77938;SDS011;67136;47.546;21.630;2023-04-10T09:21:18;17.10;;;10.27;;
77938;SDS011;67136;47.546;21.630;2023-04-10T09:24:22;15.67;;;10.03;;
77938;SDS011;67136;47.546;21.630;2023-04-10T09:27:31;15.40;;;9.40;;
77938;SDS011;67136;47.546;21.630;2023-04-10T09:30:41;13.02;;;7.70;;
77938;SDS011;67136;47.546;21.630;2023-04-10T09:33:44;12.48;;;7.85;;
77938;SDS011;67136;47.546;21.630;2023-04-10T09:36:54;12.30;;;8.30;;
77938;SDS011;67136;47.546;21.630;2023-04-10T09:40:01;14.00;;;8.27;;
77938;SDS011;67136;47.546;21.630;2023-04-10T09:43:15;13.93;;;8.85;;
77938;SDS011;67136;47.546;21.630;2023-04-10T09:46:25;10.68;;;7.00;;
77938;SDS011;67136;47.546;21.630;2023-04-10T09:49:36;11.60;;;8.00;;
77938;SDS011;67136;47.546;21.630;2023-04-10T09:52:56;15.68;;;8.57;;
77938;SDS011;67136;47.546;21.630;2023-04-10T09:55:59;13.47;;;8.47;;
77938;SDS011;67136;47.546;21.630;2023-04-10T09:59:06;12.63;;;8.55;;
77938;SDS011;67136;47.546;21.630;2023-04-10T10:02:09;14.77;;;9.85;;
77938;SDS011;67136;47.546;21.630;2023-04-10T10:05:14;13.13;;;9.38;;
77938;SDS011;67136;47.546;21.630;2023-04-10T10:08:17;13.43;;;8.88;;
77938;SDS011;67136;47.546;21.630;2023-04-10T10:11:20;13.90;;;9.23;;
77938;SDS011;67136;47.546;21.630;2023-04-10T10:14:25;15.40;;;9.63;;
77938;SDS011;67136;47.546;21.630;2023-04-10T10:17:34;14.18;;;9.35;;
77938;SDS011;67136;47.546;21.630;2023-04-10T10:20:52;15.10;;;9.13;;
77938;SDS011;67136;47.546;21.630;2023-04-10T10:23:55;16.12;;;9.40;;
77938;SDS011;67136;47.546;21.630;2023-04-10T10:27:03;14.77;;;8.87;;
77938;SDS011;67136;47.546;21.630;2023-04-10T10:30:10;13.68;;;8.88;;
77938;SDS011;67136;47.546;21.630;2023-04-10T10:33:30;15.07;;;9.40;;
77938;SDS011;67136;47.546;21.630;2023-04-10T10:36:37;13.73;;;8.98;;
77938;SDS011;67136;47.546;21.630;2023-04-10T10:46:38;14.32;;;10.07;;
77938;SDS011;67136;47.546;21.630;2023-04-10T10:52:58;17.52;;;10.88;;
77938;SDS011;67136;47.546;21.630;2023-04-10T11:06:10;22.35;;;13.98;;
77938;SDS011;67136;47.546;21.630;2023-04-10T11:23:07;23.27;;;13.00;;
77938;SDS011;67136;47.546;21.630;2023-04-10T11:26:34;23.10;;;12.98;;
77938;SDS011;67136;47.546;21.630;2023-04-10T11:29:40;23.27;;;13.05;;
77938;SDS011;67136;47.546;21.630;2023-04-10T11:32:43;24.77;;;13.00;;
77938;SDS011;67136;47.546;21.630;2023-04-10T11:35:46;23.00;;;13.60;;
77938;SDS011;67136;47.546;21.630;2023-04-10T11:38:58;24.40;;;13.73;;
77938;SDS011;67136;47.546;21.630;2023-04-10T11:42:03;24.65;;;14.15;;
77938;SDS011;67136;47.546;21.630;2023-04-10T11:45:25;23.35;;;14.07;;
77938;SDS011;67136;47.546;21.630;2023-04-10T11:48:29;26.90;;;13.97;;
77938;SDS011;67136;47.546;21.630;2023-04-10T11:51:32;23.17;;;14.02;;
77938;SDS011;67136;47.546;21.630;2023-04-10T11:54:35;25.37;;;13.65;;
77938;SDS011;67136;47.546;21.630;2023-04-10T11:57:38;23.73;;;14.20;;
77938;SDS011;67136;47.546;21.630;2023-04-10T12:00:41;23.10;;;14.00;;
77938;SDS011;67136;47.546;21.630;2023-04-10T12:03:44;24.57;;;13.37;;
77938;SDS011;67136;47.546;21.630;2023-04-10T12:06:55;25.33;;;14.77;;
77938;SDS011;67136;47.546;21.630;2023-04-10T12:09:58;25.37;;;14.40;;
77938;SDS011;67136;47.546;21.630;2023-04-10T12:13:00;20.95;;;13.13;;
77938;SDS011;67136;47.546;21.630;2023-04-10T12:16:05;22.17;;;12.85;;
77938;SDS011;67136;47.546;21.630;2023-04-10T12:19:10;19.73;;;12.43;;
77938;SDS011;67136;47.546;21.630;2023-04-10T12:22:13;19.55;;;13.00;;
77938;SDS011;67136;47.546;21.630;2023-04-10T12:25:15;22.52;;;13.27;;
77938;SDS011;67136;47.546;21.630;2023-04-10T12:28:22;20.83;;;12.80;;
77938;SDS011;67136;47.546;21.630;2023-04-10T12:34:37;21.83;;;12.90;;
77938;SDS011;67136;47.546;21.630;2023-04-10T12:41:07;19.80;;;11.98;;
77938;SDS011;67136;47.546;21.630;2023-04-10T12:44:12;18.08;;;11.90;;
77938;SDS011;67136;47.546;21.630;2023-04-10T12:47:15;22.55;;;13.00;;
77938;SDS011;67136;47.546;21.630;2023-04-10T12:50:18;22.57;;;13.33;;
77938;SDS011;67136;47.546;21.630;2023-04-10T12:53:24;19.83;;;11.80;;
77938;SDS011;67136;47.546;21.630;2023-04-10T12:56:37;20.70;;;12.48;;
77938;SDS011;67136;47.546;21.630;2023-04-10T12:59:42;19.80;;;12.25;;
77938;SDS011;67136;47.546;21.630;2023-04-10T13:02:46;21.20;;;12.45;;
77938;SDS011;67136;47.546;21.630;2023-04-10T13:05:50;21.20;;;12.53;;
77938;SDS011;67136;47.546;21.630;2023-04-10T13:08:53;20.00;;;12.05;;
77938;SDS011;67136;47.546;21.630;2023-04-10T13:11:57;20.05;;;12.48;;
77938;SDS011;67136;47.546;21.630;2023-04-10T13:15:00;20.15;;;12.18;;
77938;SDS011;67136;47.546;21.630;2023-04-10T13:18:04;26.05;;;13.32;;
77938;SDS011;67136;47.546;21.630;2023-04-10T13:21:09;20.40;;;11.90;;
77938;SDS011;67136;47.546;21.630;2023-04-10T13:24:12;17.60;;;11.25;;
77938;SDS011;67136;47.546;21.630;2023-04-10T13:27:17;20.75;;;12.00;;
77938;SDS011;67136;47.546;21.630;2023-04-10T13:30:20;19.80;;;12.02;;
77938;SDS011;67136;47.546;21.630;2023-04-10T13:33:22;19.70;;;12.63;;
77938;SDS011;67136;47.546;21.630;2023-04-10T13:36:26;21.27;;;12.20;;
77938;SDS011;67136;47.546;21.630;2023-04-10T13:39:29;20.77;;;12.18;;
77938;SDS011;67136;47.546;21.630;2023-04-10T13:42:32;20.58;;;12.60;;
77938;SDS011;67136;47.546;21.630;2023-04-10T13:45:37;18.27;;;11.98;;
77938;SDS011;67136;47.546;21.630;2023-04-10T13:48:42;19.60;;;12.90;;
77938;SDS011;67136;47.546;21.630;2023-04-10T13:51:45;25.47;;;14.40;;
77938;SDS011;67136;47.546;21.630;2023-04-10T13:54:48;19.73;;;12.60;;
77938;SDS011;67136;47.546;21.630;2023-04-10T13:57:50;19.98;;;13.40;;
77938;SDS011;67136;47.546;21.630;2023-04-10T14:00:53;21.37;;;13.35;;
77938;SDS011;67136;47.546;21.630;2023-04-10T14:03:56;22.23;;;13.55;;
77938;SDS011;67136;47.546;21.630;2023-04-10T14:06:58;23.20;;;13.60;;
77938;SDS011;67136;47.546;21.630;2023-04-10T14:10:03;22.90;;;13.80;;
77938;SDS011;67136;47.546;21.630;2023-04-10T14:13:08;23.95;;;14.20;;
77938;SDS011;67136;47.546;21.630;2023-04-10T14:16:12;24.63;;;12.90;;
77938;SDS011;67136;47.546;21.630;2023-04-10T14:19:15;23.42;;;13.60;;
77938;SDS011;67136;47.546;21.630;2023-04-10T14:22:22;18.03;;;11.33;;
77938;SDS011;67136;47.546;21.630;2023-04-10T14:25:25;21.73;;;12.68;;
77938;SDS011;67136;47.546;21.630;2023-04-10T14:28:28;20.67;;;13.00;;
77938;SDS011;67136;47.546;21.630;2023-04-10T14:31:30;22.25;;;13.10;;
77938;SDS011;67136;47.546;21.630;2023-04-10T14:34:33;22.62;;;12.73;;
77938;SDS011;67136;47.546;21.630;2023-04-10T14:37:36;21.00;;;12.00;;
77938;SDS011;67136;47.546;21.630;2023-04-10T14:40:39;21.80;;;13.25;;
77938;SDS011;67136;47.546;21.630;2023-04-10T14:43:44;23.20;;;13.25;;
77938;SDS011;67136;47.546;21.630;2023-04-10T14:46:47;21.98;;;12.50;;
77938;SDS011;67136;47.546;21.630;2023-04-10T14:49:49;25.52;;;14.57;;
77938;SDS011;67136;47.546;21.630;2023-04-10T14:52:52;25.53;;;14.83;;
77938;SDS011;67136;47.546;21.630;2023-04-10T14:55:54;23.75;;;14.07;;
77938;SDS011;67136;47.546;21.630;2023-04-10T14:58:57;24.48;;;14.57;;
77938;SDS011;67136;47.546;21.630;2023-04-10T15:01:59;21.92;;;12.80;;
77938;SDS011;67136;47.546;21.630;2023-04-10T15:05:02;24.73;;;13.68;;
77938;SDS011;67136;47.546;21.630;2023-04-10T15:08:05;22.10;;;13.47;;
77938;SDS011;67136;47.546;21.630;2023-04-10T15:11:08;21.27;;;12.48;;
77938;SDS011;67136;47.546;21.630;2023-04-10T15:14:10;21.12;;;13.88;;
77938;SDS011;67136;47.546;21.630;2023-04-10T15:17:13;24.23;;;14.13;;
77938;SDS011;67136;47.546;21.630;2023-04-10T15:20:16;22.50;;;13.98;;
77938;SDS011;67136;47.546;21.630;2023-04-10T15:23:19;23.27;;;14.10;;
77938;SDS011;67136;47.546;21.630;2023-04-10T15:26:21;23.65;;;14.57;;
77938;SDS011;67136;47.546;21.630;2023-04-10T15:29:24;21.83;;;13.77;;
77938;SDS011;67136;47.546;21.630;2023-04-10T15:32:26;24.08;;;15.02;;
77938;SDS011;67136;47.546;21.630;2023-04-10T15:35:32;22.87;;;14.55;;
77938;SDS011;67136;47.546;21.630;2023-04-10T15:38:37;22.50;;;13.97;;
77938;SDS011;67136;47.546;21.630;2023-04-10T15:41:40;22.75;;;13.52;;
77938;SDS011;67136;47.546;21.630;2023-04-10T15:44:45;28.60;;;15.32;;
77938;SDS011;67136;47.546;21.630;2023-04-10T15:47:50;24.23;;;14.02;;
77938;SDS011;67136;47.546;21.630;2023-04-10T15:50:53;26.17;;;14.82;;
77938;SDS011;67136;47.546;21.630;2023-04-10T15:53:56;28.20;;;14.60;;
77938;SDS011;67136;47.546;21.630;2023-04-10T15:56:58;29.00;;;15.50;;
77938;SDS011;67136;47.546;21.630;2023-04-10T16:00:01;26.00;;;15.40;;
77938;SDS011;67136;47.546;21.630;2023-04-10T16:03:07;24.87;;;15.13;;
77938;SDS011;67136;47.546;21.630;2023-04-10T16:06:10;24.35;;;14.40;;
77938;SDS011;67136;47.546;21.630;2023-04-10T16:09:13;24.00;;;14.63;;
77938;SDS011;67136;47.546;21.630;2023-04-10T16:12:27;25.52;;;14.85;;
77938;SDS011;67136;47.546;21.630;2023-04-10T16:15:31;28.38;;;15.82;;
77938;SDS011;67136;47.546;21.630;2023-04-10T16:18:35;27.33;;;15.45;;
77938;SDS011;67136;47.546;21.630;2023-04-10T16:21:38;28.85;;;16.15;;
77938;SDS011;67136;47.546;21.630;2023-04-10T16:24:41;28.30;;;15.63;;
77938;SDS011;67136;47.546;21.630;2023-04-10T16:27:43;30.10;;;15.73;;
77938;SDS011;67136;47.546;21.630;2023-04-10T16:30:46;30.10;;;16.95;;
77938;SDS011;67136;47.546;21.630;2023-04-10T16:33:48;29.30;;;15.85;;
77938;SDS011;67136;47.546;21.630;2023-04-10T16:36:51;29.25;;;15.80;;
77938;SDS011;67136;47.546;21.630;2023-04-10T16:39:53;28.77;;;15.83;;
77938;SDS011;67136;47.546;21.630;2023-04-10T16:42:57;30.30;;;15.70;;
77938;SDS011;67136;47.546;21.630;2023-04-10T16:46:02;29.67;;;16.27;;
77938;SDS011;67136;47.546;21.630;2023-04-10T16:49:04;29.20;;;16.55;;
77938;SDS011;67136;47.546;21.630;2023-04-10T16:52:07;29.23;;;16.10;;
77938;SDS011;67136;47.546;21.630;2023-04-10T16:55:09;26.37;;;15.33;;
77938;SDS011;67136;47.546;21.630;2023-04-10T16:58:12;28.45;;;15.18;;
77938;SDS011;67136;47.546;21.630;2023-04-10T17:01:15;28.50;;;15.35;;
77938;SDS011;67136;47.546;21.630;2023-04-10T17:04:20;29.05;;;15.93;;
77938;SDS011;67136;47.546;21.630;2023-04-10T17:07:23;35.25;;;16.95;;
77938;SDS011;67136;47.546;21.630;2023-04-10T17:10:26;28.53;;;16.20;;
77938;SDS011;67136;47.546;21.630;2023-04-10T17:13:28;51.33;;;23.67;;
77938;SDS011;67136;47.546;21.630;2023-04-10T17:16:31;41.70;;;20.85;;
77938;SDS011;67136;47.546;21.630;2023-04-10T17:19:34;45.28;;;22.55;;
77938;SDS011;67136;47.546;21.630;2023-04-10T17:22:37;50.08;;;22.95;;
77938;SDS011;67136;47.546;21.630;2023-04-10T17:25:42;49.60;;;22.73;;
77938;SDS011;67136;47.546;21.630;2023-04-10T17:28:46;47.45;;;20.33;;
77938;SDS011;67136;47.546;21.630;2023-04-10T17:31:48;42.03;;;20.45;;
77938;SDS011;67136;47.546;21.630;2023-04-10T17:34:51;61.35;;;28.62;;
77938;SDS011;67136;47.546;21.630;2023-04-10T17:37:54;87.18;;;37.20;;
77938;SDS011;67136;47.546;21.630;2023-04-10T17:40:56;67.40;;;30.50;;
77938;SDS011;67136;47.546;21.630;2023-04-10T17:43:59;75.07;;;33.08;;
77938;SDS011;67136;47.546;21.630;2023-04-10T17:47:03;70.12;;;35.25;;
77938;SDS011;67136;47.546;21.630;2023-04-10T17:50:06;59.08;;;30.88;;
77938;SDS011;67136;47.546;21.630;2023-04-10T17:53:09;49.30;;;26.92;;
77938;SDS011;67136;47.546;21.630;2023-04-10T17:56:15;43.87;;;23.73;;
77938;SDS011;67136;47.546;21.630;2023-04-10T17:59:20;40.50;;;20.20;;
77938;SDS011;67136;47.546;21.630;2023-04-10T18:02:23;31.80;;;17.20;;
77938;SDS011;67136;47.546;21.630;2023-04-10T18:05:29;31.10;;;16.45;;
77938;SDS011;67136;47.546;21.630;2023-04-10T18:08:31;32.88;;;16.87;;
77938;SDS011;67136;47.546;21.630;2023-04-10T18:11:37;27.57;;;15.03;;
77938;SDS011;67136;47.546;21.630;2023-04-10T18:14:40;29.15;;;15.73;;
77938;SDS011;67136;47.546;21.630;2023-04-10T18:17:45;29.73;;;16.20;;
77938;SDS011;67136;47.546;21.630;2023-04-10T18:20:47;34.70;;;17.50;;
77938;SDS011;67136;47.546;21.630;2023-04-10T18:23:50;34.83;;;16.85;;
77938;SDS011;67136;47.546;21.630;2023-04-10T18:26:52;31.60;;;15.70;;
77938;SDS011;67136;47.546;21.630;2023-04-10T18:29:57;30.45;;;16.08;;
77938;SDS011;67136;47.546;21.630;2023-04-10T18:33:00;30.02;;;16.10;;
77938;SDS011;67136;47.546;21.630;2023-04-10T18:36:07;32.00;;;16.40;;
77938;SDS011;67136;47.546;21.630;2023-04-10T18:39:16;34.20;;;17.23;;
77938;SDS011;67136;47.546;21.630;2023-04-10T18:42:19;32.73;;;16.40;;
77938;SDS011;67136;47.546;21.630;2023-04-10T18:45:21;31.08;;;16.70;;
77938;SDS011;67136;47.546;21.630;2023-04-10T18:48:24;33.47;;;17.30;;